createdAt,value
2022-12-24T00:03:32.112Z,10.90
2022-12-24T00:08:34.516Z,8.30
2022-12-24T00:13:36.015Z,14.90
2022-12-24T00:18:45.156Z,13.00
2022-12-24T00:23:47.562Z,11.50
2022-12-24T00:28:49.334Z,24.20
2022-12-24T00:33:51.339Z,23.90
2022-12-24T00:38:52.826Z,17.50
2022-12-24T00:44:00.512Z,15.00
2022-12-24T00:49:03.881Z,15.90
2022-12-24T00:54:06.394Z,21.70
2022-12-24T00:59:07.899Z,15.30
2022-12-24T01:04:28.102Z,14.70
2022-12-24T01:09:29.689Z,15.30
2022-12-24T01:14:31.121Z,20.00
2022-12-24T01:19:33.484Z,27.50
2022-12-24T01:24:35.113Z,22.50
2022-12-24T01:29:36.612Z,14.80
2022-12-24T01:34:38.167Z,19.10
2022-12-24T01:39:39.674Z,11.90
2022-12-24T01:44:47.432Z,15.70
2022-12-24T01:50:00.064Z,15.60
2022-12-24T01:55:11.973Z,8.50
2022-12-24T02:00:16.061Z,12.30
2022-12-24T02:05:30.186Z,20.80
2022-12-24T02:10:31.695Z,20.60
2022-12-24T02:16:00.920Z,21.70
2022-12-24T02:21:48.739Z,13.90
2022-12-24T02:27:15.096Z,10.10
2022-12-24T02:32:26.480Z,11.20
2022-12-24T02:37:37.352Z,14.20
2022-12-24T02:42:45.788Z,9.30
2022-12-24T02:47:48.937Z,10.20
2022-12-24T02:52:51.733Z,12.50
2022-12-24T02:58:27.329Z,12.50
2022-12-24T03:03:59.575Z,12.50
2022-12-24T03:09:18.566Z,12.00
2022-12-24T03:14:22.714Z,11.00
2022-12-24T03:19:26.426Z,15.10
2022-12-24T03:24:28.046Z,14.50
2022-12-24T03:29:29.657Z,15.70
2022-12-24T03:34:31.719Z,14.20
2022-12-24T03:39:33.225Z,13.20
2022-12-24T03:44:34.712Z,17.60
2022-12-24T03:49:36.286Z,24.70
2022-12-24T03:54:37.799Z,14.90
2022-12-24T03:59:39.291Z,46.10
2022-12-24T04:04:40.866Z,23.70
2022-12-24T04:09:42.414Z,31.10
2022-12-24T04:14:43.952Z,37.80
2022-12-24T04:19:45.541Z,36.70
2022-12-24T04:24:47.145Z,30.60
2022-12-24T04:29:48.908Z,28.50
2022-12-24T04:34:50.494Z,26.50
2022-12-24T04:39:51.999Z,22.60
2022-12-24T04:44:53.515Z,21.00
2022-12-24T04:49:55.042Z,21.20
2022-12-24T04:54:56.578Z,19.20
2022-12-24T04:59:58.081Z,20.40
2022-12-24T05:04:59.683Z,18.50
2022-12-24T05:10:01.212Z,21.50
2022-12-24T05:15:03.708Z,18.10
2022-12-24T05:20:06.750Z,19.80
2022-12-24T05:25:28.222Z,19.70
2022-12-24T05:30:29.906Z,23.40
2022-12-24T05:35:31.592Z,23.10
2022-12-24T05:40:33.194Z,18.20
2022-12-24T05:45:34.748Z,16.60
2022-12-24T05:50:39.623Z,16.60
2022-12-24T05:55:41.159Z,16.60
2022-12-24T06:00:42.996Z,15.90
2022-12-24T06:05:44.485Z,16.00
2022-12-24T06:10:46.025Z,17.00
2022-12-24T06:15:47.557Z,15.60
2022-12-24T06:20:53.982Z,19.90
2022-12-24T06:26:00.211Z,18.80
2022-12-24T06:31:03.865Z,16.50
2022-12-24T06:36:14.969Z,16.50
2022-12-24T06:41:21.115Z,19.50
2022-12-24T06:46:22.705Z,21.00
2022-12-24T06:51:24.247Z,21.00
2022-12-24T06:56:26.257Z,35.90
2022-12-24T07:01:27.878Z,20.50
2022-12-24T07:06:30.237Z,21.00
2022-12-24T07:11:31.795Z,19.20
2022-12-24T07:16:33.464Z,22.00
2022-12-24T07:21:35.117Z,18.00
2022-12-24T07:26:36.674Z,16.40
2022-12-24T07:31:38.295Z,25.50
2022-12-24T07:36:39.956Z,18.70
2022-12-24T07:41:42.031Z,16.60
2022-12-24T07:46:44.454Z,16.10
2022-12-24T07:51:46.274Z,15.10
2022-12-24T07:56:48.166Z,12.40
2022-12-24T08:01:49.906Z,19.40
2022-12-24T08:06:51.624Z,18.60
2022-12-24T08:11:53.139Z,14.10
2022-12-24T08:16:54.944Z,21.50
2022-12-24T08:21:56.464Z,19.20
2022-12-24T08:26:58.007Z,25.20
2022-12-24T08:31:59.534Z,27.20
2022-12-24T08:37:01.172Z,30.00
2022-12-24T08:42:03.388Z,63.00
2022-12-24T08:47:05.043Z,73.20
2022-12-24T08:52:06.669Z,88.70
2022-12-24T08:57:08.171Z,91.90
2022-12-24T09:02:09.815Z,71.00
2022-12-24T09:07:11.612Z,92.60
2022-12-24T09:12:13.231Z,79.50
2022-12-24T09:17:14.741Z,27.30
2022-12-24T09:22:16.604Z,30.40
2022-12-24T09:27:18.174Z,42.30
2022-12-24T09:32:19.778Z,60.80
2022-12-24T09:37:21.381Z,64.30
2022-12-24T09:42:42.350Z,46.20
2022-12-24T09:47:55.296Z,53.00
2022-12-24T09:53:02.281Z,48.00
2022-12-24T09:58:06.904Z,44.20
2022-12-24T10:03:17.264Z,36.10
2022-12-24T10:09:04.988Z,33.90
2022-12-24T10:14:28.680Z,26.90
2022-12-24T10:20:12.800Z,24.80
2022-12-24T10:25:33.011Z,18.90
2022-12-24T10:30:35.404Z,17.40
2022-12-24T10:35:45.987Z,13.30
2022-12-24T10:40:52.684Z,11.40
2022-12-24T10:46:15.126Z,14.10
2022-12-24T10:51:43.150Z,12.90
2022-12-24T10:56:51.980Z,10.50
2022-12-24T11:02:00.010Z,11.10
2022-12-24T11:07:06.590Z,11.40
2022-12-24T11:12:32.061Z,10.60
2022-12-24T11:17:34.261Z,5.80
2022-12-24T11:22:36.113Z,9.10
2022-12-24T11:27:49.025Z,9.40
2022-12-24T11:33:18.542Z,11.60
2022-12-24T11:38:25.344Z,13.00
2022-12-24T11:43:43.862Z,12.30
2022-12-24T11:48:48.394Z,47.90
2022-12-24T11:54:22.986Z,33.30
2022-12-24T11:59:47.821Z,83.40
2022-12-24T12:04:57.476Z,16.50
2022-12-24T12:10:24.850Z,15.20
2022-12-24T12:15:37.363Z,17.00
2022-12-24T12:20:46.037Z,19.40
2022-12-24T12:25:57.437Z,34.80
2022-12-24T12:31:18.907Z,14.00
2022-12-24T12:36:33.668Z,5.60
2022-12-24T12:41:56.342Z,6.50
2022-12-24T12:47:32.202Z,36.80
2022-12-24T12:53:23.623Z,18.10
2022-12-24T12:58:36.896Z,23.50
2022-12-24T13:04:15.602Z,17.30
2022-12-24T13:09:44.986Z,14.20
2022-12-24T13:15:24.651Z,11.80
2022-12-24T13:20:33.027Z,11.90
2022-12-24T13:25:42.365Z,18.40
2022-12-24T13:30:44.609Z,17.50
2022-12-24T13:36:11.067Z,11.90
2022-12-24T13:41:37.830Z,13.80
2022-12-24T13:46:57.502Z,16.10
2022-12-24T13:52:11.070Z,15.60
2022-12-24T13:57:37.816Z,31.60
2022-12-24T14:02:57.548Z,29.00
2022-12-24T14:08:02.866Z,42.00
2022-12-24T14:13:09.495Z,25.80
2022-12-24T14:18:24.821Z,23.70
2022-12-24T14:23:43.476Z,17.00
2022-12-24T14:29:07.787Z,21.60
2022-12-24T14:34:13.157Z,17.00
2022-12-24T14:39:30.244Z,18.10
2022-12-24T14:44:51.794Z,18.30
2022-12-24T14:50:24.063Z,17.50
2022-12-24T14:55:31.807Z,15.10
2022-12-24T15:00:39.288Z,21.40
2022-12-24T15:05:42.591Z,13.10
2022-12-24T15:10:51.978Z,13.30
2022-12-24T15:15:55.714Z,21.00
2022-12-24T15:21:04.603Z,14.20
2022-12-24T15:26:30.757Z,8.90
2022-12-24T15:31:32.708Z,12.00
2022-12-24T15:36:36.694Z,17.40
2022-12-24T15:42:03.593Z,11.60
2022-12-24T15:47:15.499Z,7.60
2022-12-24T15:52:23.730Z,9.70
2022-12-24T15:57:31.660Z,10.50
2022-12-24T16:02:51.567Z,11.20
2022-12-24T16:08:08.675Z,11.10
2022-12-24T16:13:28.957Z,10.50
2022-12-24T16:18:53.072Z,10.60
2022-12-24T16:24:05.730Z,12.50
2022-12-24T16:29:09.414Z,11.50
2022-12-24T16:34:17.179Z,18.40
2022-12-24T16:39:24.804Z,12.30
2022-12-24T16:44:26.485Z,9.30
2022-12-24T16:49:28.524Z,17.60
2022-12-24T16:54:30.161Z,14.10
2022-12-24T16:59:32.068Z,12.40
2022-12-24T17:04:34.699Z,10.10
2022-12-24T17:09:36.268Z,10.20
2022-12-24T17:14:39.729Z,8.70
2022-12-24T17:19:41.234Z,6.80
2022-12-24T17:24:42.914Z,8.60
2022-12-24T17:29:44.607Z,9.60
2022-12-24T17:34:46.288Z,8.00
2022-12-24T17:39:47.828Z,9.70
2022-12-24T17:44:49.444Z,9.40
2022-12-24T17:49:51.168Z,12.00
2022-12-24T17:54:54.475Z,19.70
2022-12-24T17:59:56.859Z,10.60
2022-12-24T18:04:58.451Z,7.50
2022-12-24T18:10:00.002Z,8.10
2022-12-24T18:15:01.557Z,11.60
2022-12-24T18:20:04.465Z,11.00
2022-12-24T18:25:06.503Z,7.70
2022-12-24T18:30:09.222Z,8.50
2022-12-24T18:35:11.013Z,7.70
2022-12-24T18:40:12.659Z,9.30
2022-12-24T18:45:14.263Z,9.80
2022-12-24T18:50:16.032Z,9.40
2022-12-24T18:55:17.613Z,11.60
2022-12-24T19:00:19.883Z,15.70
2022-12-24T19:05:21.447Z,13.80
2022-12-24T19:10:23.261Z,12.50
2022-12-24T19:15:26.517Z,12.80
2022-12-24T19:20:29.900Z,27.60
2022-12-24T19:25:33.269Z,17.00
2022-12-24T19:30:37.862Z,19.30
2022-12-24T19:35:39.424Z,12.10
2022-12-24T19:40:41.095Z,12.20
2022-12-24T19:45:42.660Z,7.80
2022-12-24T19:50:44.292Z,13.90
2022-12-24T19:55:46.299Z,13.90
2022-12-24T20:00:48.503Z,6.50
2022-12-24T20:05:54.339Z,8.10
2022-12-24T20:10:56.082Z,8.20
2022-12-24T20:16:07.297Z,9.90
2022-12-24T20:21:12.274Z,12.40
2022-12-24T20:26:16.679Z,15.20
2022-12-24T20:31:24.128Z,23.40
2022-12-24T20:36:29.238Z,15.40
2022-12-24T20:41:32.075Z,23.20
2022-12-24T20:46:34.685Z,25.20
2022-12-24T20:51:36.378Z,46.00
2022-12-24T20:56:37.979Z,28.70
2022-12-24T21:01:39.654Z,23.20
2022-12-24T21:06:41.698Z,13.80
2022-12-24T21:11:49.246Z,15.90
2022-12-24T21:16:55.942Z,21.90
2022-12-24T21:22:00.506Z,22.20
2022-12-24T21:27:02.409Z,14.90
2022-12-24T21:32:04.167Z,13.80
2022-12-24T21:37:05.883Z,7.70
2022-12-24T21:42:08.424Z,6.20
2022-12-24T21:47:10.606Z,7.10
2022-12-24T21:52:12.291Z,18.30
2022-12-24T21:57:33.265Z,7.40
2022-12-24T22:02:37.367Z,13.50
2022-12-24T22:07:57.826Z,8.50
2022-12-24T22:13:05.596Z,9.20
2022-12-24T22:18:07.382Z,8.70
2022-12-24T22:23:09.152Z,8.90
2022-12-24T22:28:11.387Z,10.20
2022-12-24T22:33:12.910Z,13.20
2022-12-24T22:38:14.565Z,11.00
2022-12-24T22:43:16.080Z,12.20
2022-12-24T22:48:18.063Z,10.80
2022-12-24T22:53:19.699Z,11.00
2022-12-24T22:58:22.345Z,14.30
2022-12-24T23:03:24.915Z,16.10
2022-12-24T23:08:28.126Z,14.50
2022-12-24T23:13:48.541Z,37.30
2022-12-24T23:18:50.173Z,28.50
2022-12-24T23:23:52.200Z,20.60
2022-12-24T23:28:54.823Z,14.00
2022-12-24T23:33:56.360Z,13.20
2022-12-24T23:38:58.120Z,70.00
2022-12-24T23:43:59.631Z,13.60
2022-12-24T23:49:01.309Z,12.40
2022-12-24T23:54:05.430Z,13.70
2022-12-24T23:59:06.965Z,13.70
